Time;durP1;ratioP1;P1;durP2;ratioP2;P2;SDS_P1;SDS_P2;PMS_P1;PMS_P2;Temp;Humidity;BMP_temperature;BMP_pressure;BME280_temperature;BME280_humidity;BME280_pressure;Samples;Min_cycle;Max_cycle;Signal;HPM_P1;HPM_P2
2020/12/04 00:00:41;;;;;;;48.52;14.35;;;;;;;-1.34;85.53;102290.52;1749475;80;21026;-86
2020/12/04 00:03:07;;;;;;;50.45;15.75;;;;;;;-1.39;85.69;102299.67;1745438;80;20959;-87
2020/12/04 00:05:32;;;;;;;44.13;14.33;;;;;;;-1.19;85.16;102302.33;1765985;80;21973;-86
2020/12/04 00:07:58;;;;;;;51.98;15.43;;;;;;;-0.98;84.05;102304.32;1747879;80;20958;-86
2020/12/04 00:10:24;;;;;;;43.25;14.25;;;;;;;-1.09;84.18;102307.11;1762562;80;21077;-86
2020/12/04 00:12:50;;;;;;;50.08;14.53;;;;;;;-0.98;83.95;102301.67;1748838;80;20899;-86
2020/12/04 00:15:16;;;;;;;44.93;14.45;;;;;;;-1.17;84.15;102311.80;1748976;81;21018;-86
2020/12/04 00:17:41;;;;;;;46.50;15.03;;;;;;;-0.89;83.98;102313.22;1751413;80;21062;-86
2020/12/04 00:20:08;;;;;;;48.68;14.20;;;;;;;-1.02;84.28;102308.73;1778675;80;21046;-86
2020/12/04 00:22:33;;;;;;;47.45;15.18;;;;;;;-1.27;85.35;102314.92;1759942;80;21546;-86
2020/12/04 00:24:59;;;;;;;44.88;13.88;;;;;;;-1.13;84.98;102314.99;1769634;80;20948;-85
2020/12/04 00:27:25;;;;;;;48.28;14.45;;;;;;;-1.17;84.91;102317.09;1768905;80;20947;-86
2020/12/04 00:29:51;;;;;;;45.10;14.63;;;;;;;-1.00;84.27;102317.34;1768530;80;21121;-85
2020/12/04 00:32:16;;;;;;;45.30;14.68;;;;;;;-0.92;83.86;102322.27;1772279;80;20939;-87
2020/12/04 00:34:43;;;;;;;46.48;13.95;;;;;;;-1.02;83.70;102314.85;1765949;80;20974;-86
2020/12/04 00:37:11;;;;;;;48.78;14.50;;;;;;;-1.17;85.10;102317.59;1760155;80;21153;-86
2020/12/04 00:39:37;;;;;;;46.45;15.45;;;;;;;-1.09;84.77;102317.70;1764265;80;21177;-86
2020/12/04 00:42:03;;;;;;;48.60;15.15;;;;;;;-0.98;84.49;102318.05;1760785;81;21002;-86
2020/12/04 00:44:29;;;;;;;46.70;14.55;;;;;;;-1.15;85.07;102312.97;1764255;80;20985;-86
2020/12/04 00:46:55;;;;;;;53.02;15.83;;;;;;;-0.98;84.64;102316.72;1760314;80;20946;-86
2020/12/04 00:49:20;;;;;;;46.55;14.73;;;;;;;-0.96;84.55;102308.99;1766272;80;20983;-86
2020/12/04 00:51:46;;;;;;;47.78;14.50;;;;;;;-1.03;84.65;102307.04;1763086;80;21051;-86
2020/12/04 00:54:12;;;;;;;46.98;14.70;;;;;;;-0.93;84.19;102304.73;1766262;80;21244;-86
2020/12/04 00:56:38;;;;;;;47.38;14.98;;;;;;;-0.94;83.86;102308.37;1766568;80;20914;-86
2020/12/04 00:59:04;;;;;;;43.33;14.23;;;;;;;-1.13;84.95;102304.41;1765952;80;20982;-86
2020/12/04 01:01:32;;;;;;;48.08;14.40;;;;;;;-1.03;84.98;102314.98;1774058;80;20967;-86
2020/12/04 01:03:58;;;;;;;43.87;14.83;;;;;;;-1.00;84.84;102311.59;1749930;80;21061;-86
2020/12/04 01:06:24;;;;;;;55.40;14.80;;;;;;;-0.98;84.75;102310.11;1752868;80;21294;-85
2020/12/04 01:08:50;;;;;;;42.03;13.83;;;;;;;-0.80;84.00;102307.56;1753112;80;21093;-86
2020/12/04 01:11:22;;;;;;;44.38;13.68;;;;;;;-0.89;84.48;102305.28;1760088;80;21148;-86
2020/12/04 01:13:48;;;;;;;44.18;14.10;;;;;;;-0.78;83.97;102308.27;1763644;80;21564;-86
2020/12/04 01:16:14;;;;;;;43.15;13.25;;;;;;;-0.79;83.86;102305.28;1749579;80;21607;-86
2020/12/04 01:18:40;;;;;;;43.50;14.33;;;;;;;-0.73;83.95;102306.03;1755490;81;21249;-86
2020/12/04 01:21:10;;;;;;;45.80;13.75;;;;;;;-0.96;84.91;102301.05;1752390;80;21114;-86
2020/12/04 01:23:35;;;;;;;40.30;13.40;;;;;;;-0.85;84.47;102298.75;1775033;80;21168;-86
2020/12/04 01:26:01;;;;;;;48.58;14.98;;;;;;;-0.77;84.21;102304.14;1771330;80;21100;-86
2020/12/04 01:28:27;;;;;;;45.73;14.05;;;;;;;-0.77;84.31;102301.98;1763923;80;20971;-86
2020/12/04 01:30:53;;;;;;;44.80;14.98;;;;;;;-0.93;84.95;102299.45;1760371;80;21948;-86
2020/12/04 01:33:19;;;;;;;42.67;13.80;;;;;;;-0.90;84.72;102294.36;1767564;80;20922;-86
2020/12/04 01:35:45;;;;;;;42.23;13.22;;;;;;;-0.87;84.80;102298.54;1774261;80;21133;-86
2020/12/04 01:38:11;;;;;;;75.87;15.72;;;;;;;-0.85;85.09;102305.83;1769732;80;21635;-86
2020/12/04 01:40:36;;;;;;;42.20;14.25;;;;;;;-0.79;84.91;102300.82;1773186;80;21026;-86
2020/12/04 01:43:02;;;;;;;42.08;13.98;;;;;;;-0.89;85.35;102294.70;1759539;80;21241;-86
2020/12/04 01:45:28;;;;;;;46.85;13.50;;;;;;;-0.86;85.30;102293.58;1749814;80;21025;-86
2020/12/04 01:47:56;;;;;;;41.02;13.62;;;;;;;-0.92;84.72;102293.16;1766319;80;21157;-86
2020/12/04 01:50:24;;;;;;;48.92;15.18;;;;;;;-0.86;85.26;102286.47;1744924;80;21120;-86
2020/12/04 01:52:51;;;;;;;40.12;13.80;;;;;;;-1.13;86.60;102283.25;1770035;80;21176;-86
2020/12/04 01:55:17;;;;;;;45.80;14.70;;;;;;;-1.12;86.55;102288.88;1752101;80;21795;-86
2020/12/04 01:57:47;;;;;;;40.67;13.60;;;;;;;-1.21;86.64;102282.62;1774205;80;21132;-86
2020/12/04 02:00:13;;;;;;;46.58;15.43;;;;;;;-1.12;86.46;102282.76;1771295;80;21495;-86
2020/12/04 02:02:43;;;;;;;47.53;13.55;;;;;;;-1.25;87.14;102286.53;1753725;81;21181;-86
2020/12/04 02:05:10;;;;;;;44.23;13.75;;;;;;;-1.08;86.54;102286.31;1666546;84;21540;-86
2020/12/04 02:08:11;;;;;;;44.93;12.98;;;;;;;-1.00;86.46;102286.91;1663271;84;21177;-87
2020/12/04 02:10:45;;;;;;;41.50;14.80;;;;;;;-0.98;85.92;102284.97;1614241;86;21370;-85
2020/12/04 02:13:12;;;;;;;44.05;15.15;;;;;;;-1.17;87.30;102283.20;1596007;87;21636;-86
2020/12/04 02:15:38;;;;;;;39.00;13.48;;;;;;;-0.93;85.88;102284.89;1631170;86;21151;-86
2020/12/04 02:18:05;;;;;;;47.48;14.53;;;;;;;-0.90;85.88;102281.13;1623852;87;21329;-86
2020/12/04 02:20:35;;;;;;;40.65;13.10;;;;;;;-1.06;87.01;102285.70;1623023;87;21354;-86
2020/12/04 02:23:01;;;;;;;42.40;13.22;;;;;;;-0.91;86.12;102292.70;1626139;86;21216;-86
2020/12/04 02:25:27;;;;;;;47.30;14.00;;;;;;;-0.90;85.86;102291.72;1620589;86;21639;-86
2020/12/04 02:27:53;;;;;;;44.60;13.65;;;;;;;-0.89;86.02;102286.77;1629202;87;21722;-86
2020/12/04 02:30:36;;;;;;;40.78;13.43;;;;;;;-0.66;84.89;102283.30;1617251;87;21207;-86
2020/12/04 02:33:02;;;;;;;48.80;14.83;;;;;;;-0.88;85.64;102284.94;1624834;86;21823;-86
2020/12/04 02:35:30;;;;;;;51.35;15.03;;;;;;;-0.78;85.15;102278.66;1592694;88;22567;-86
2020/12/04 02:37:58;;;;;;;49.95;14.47;;;;;;;-0.94;85.77;102281.91;1622715;86;21278;-86
2020/12/04 02:40:24;;;;;;;53.45;15.40;;;;;;;-0.83;85.62;102278.25;1628528;86;21186;-86
2020/12/04 02:42:50;;;;;;;59.83;17.20;;;;;;;-0.94;85.88;102277.94;1624345;87;21104;-86
2020/12/04 02:45:16;;;;;;;61.40;15.28;;;;;;;-0.81;85.56;102277.63;1619306;86;21794;-86
2020/12/04 02:47:42;;;;;;;61.85;16.57;;;;;;;-0.75;85.20;102278.87;1641544;84;21262;-86
2020/12/04 02:50:09;;;;;;;70.47;15.35;;;;;;;-0.73;84.91;102279.56;1672746;84;20993;-85
2020/12/04 02:52:35;;;;;;;63.78;15.88;;;;;;;-0.79;85.68;102274.85;1678179;84;21148;-86
2020/12/04 02:55:00;;;;;;;66.22;15.88;;;;;;;-0.73;85.42;102276.92;1676108;84;21044;-86
2020/12/04 02:57:26;;;;;;;61.40;15.98;;;;;;;-0.72;85.07;102282.55;1673199;84;21273;-86
2020/12/04 02:59:52;;;;;;;71.70;17.65;;;;;;;-0.77;85.18;102283.45;1679260;84;21126;-85
2020/12/04 03:02:18;;;;;;;72.10;17.67;;;;;;;-0.81;85.45;102282.09;1719068;80;20959;-86
2020/12/04 03:04:44;;;;;;;62.60;15.60;;;;;;;-0.65;84.80;102283.63;1760606;80;20962;-85
2020/12/04 03:07:11;;;;;;;64.65;18.20;;;;;;;-0.70;85.12;102281.43;1753473;80;20957;-86
2020/12/04 03:09:37;;;;;;;64.25;17.40;;;;;;;-0.86;86.03;102283.83;1760838;80;21155;-86
2020/12/04 03:12:03;;;;;;;73.95;17.70;;;;;;;-0.79;85.97;102286.27;1755920;80;20934;-85
2020/12/04 03:14:28;;;;;;;72.47;17.45;;;;;;;-0.86;86.17;102281.18;1749677;80;20967;-86
2020/12/04 03:16:54;;;;;;;68.45;16.27;;;;;;;-0.88;86.10;102277.00;1752912;80;20958;-86
2020/12/04 03:19:20;;;;;;;81.20;17.35;;;;;;;-0.74;85.43;102283.17;1763774;80;21612;-85
2020/12/04 03:21:46;;;;;;;83.92;20.35;;;;;;;-0.79;85.79;102276.17;1757533;80;21032;-85
2020/12/04 03:24:12;;;;;;;66.87;16.80;;;;;;;-0.64;85.14;102276.05;1747097;80;20934;-85
2020/12/04 03:26:39;;;;;;;67.45;17.37;;;;;;;-0.87;85.43;102274.72;1759964;80;20977;-85
2020/12/04 03:29:05;;;;;;;70.85;18.42;;;;;;;-0.81;85.70;102264.39;1744724;80;21145;-86
2020/12/04 03:31:31;;;;;;;73.25;17.65;;;;;;;-0.89;85.90;102271.38;1764433;79;21231;-86
2020/12/04 03:33:57;;;;;;;81.63;16.48;;;;;;;-1.06;86.44;102273.79;1768255;80;21196;-85
2020/12/04 03:36:23;;;;;;;67.67;17.32;;;;;;;-1.24;86.65;102272.33;1766747;80;20920;-86
2020/12/04 03:38:49;;;;;;;74.95;18.07;;;;;;;-1.07;86.36;102273.42;1766636;80;20931;-85
2020/12/04 03:41:15;;;;;;;73.90;17.37;;;;;;;-0.92;86.09;102275.14;1760176;80;21019;-85
2020/12/04 03:43:40;;;;;;;67.87;16.52;;;;;;;-0.89;85.71;102279.31;1752470;80;20970;-85
2020/12/04 03:46:10;;;;;;;73.35;17.67;;;;;;;-1.11;86.08;102273.87;1771837;80;21716;-85
2020/12/04 03:48:38;;;;;;;74.10;18.02;;;;;;;-0.98;86.13;102267.77;1693503;83;21604;-86
2020/12/04 03:51:04;;;;;;;64.92;17.00;;;;;;;-1.12;87.21;102269.04;1654668;85;21271;-86
2020/12/04 03:53:31;;;;;;;62.20;15.78;;;;;;;-1.05;87.05;102271.98;1655338;86;21701;-86
2020/12/04 03:55:57;;;;;;;73.92;17.65;;;;;;;-0.86;86.31;102261.33;1653611;86;21326;-86
2020/12/04 03:58:23;;;;;;;69.67;17.90;;;;;;;-0.87;86.19;102268.94;1654879;86;21176;-86
2020/12/04 04:00:48;;;;;;;73.02;16.82;;;;;;;-0.95;86.29;102270.96;1631957;86;20989;-86
2020/12/04 04:03:14;;;;;;;67.80;15.98;;;;;;;-0.89;86.41;102270.05;1655936;86;21044;-86
2020/12/04 04:05:40;;;;;;;80.50;17.60;;;;;;;-0.95;86.19;102271.45;1654054;86;21622;-86
2020/12/04 04:08:06;;;;;;;72.10;16.05;;;;;;;-0.96;86.51;102269.80;1633404;86;20988;-86
2020/12/04 04:10:32;;;;;;;82.42;19.00;;;;;;;-0.98;86.07;102265.95;1655507;86;21212;-86
2020/12/04 04:12:58;;;;;;;74.82;16.87;;;;;;;-0.85;85.69;102270.10;1657646;85;21242;-86
2020/12/04 04:15:24;;;;;;;72.58;17.02;;;;;;;-0.88;86.20;102278.33;1653722;86;21163;-85
2020/12/04 04:17:50;;;;;;;72.37;17.85;;;;;;;-0.81;85.86;102274.15;1648816;85;21068;-86
2020/12/04 04:20:15;;;;;;;72.87;17.87;;;;;;;-0.75;85.57;102277.55;1652352;86;20981;-86
2020/12/04 04:22:41;;;;;;;80.62;19.42;;;;;;;-0.74;85.03;102273.41;1654241;86;21129;-85
2020/12/04 04:25:07;;;;;;;79.85;19.25;;;;;;;-1.01;85.56;102276.00;1657800;86;21709;-86
2020/12/04 04:27:33;;;;;;;83.55;19.45;;;;;;;-1.00;85.99;102273.22;1655965;85;21524;-86
2020/12/04 04:29:59;;;;;;;77.58;19.30;;;;;;;-1.08;86.89;102282.84;1655247;86;21124;-85
2020/12/04 04:32:25;;;;;;;75.45;16.48;;;;;;;-0.87;85.81;102282.66;1653248;85;21627;-86
2020/12/04 04:34:50;;;;;;;63.33;16.82;;;;;;;-0.77;85.18;102286.94;1653852;86;21902;-86
2020/12/04 04:37:16;;;;;;;65.10;16.27;;;;;;;-0.83;85.42;102284.86;1655915;85;21243;-86
2020/12/04 04:39:43;;;;;;;67.25;17.30;;;;;;;-0.75;85.13;102288.96;1655594;86;21018;-86
2020/12/04 04:42:10;;;;;;;71.60;18.10;;;;;;;-0.92;85.60;102286.55;1656999;86;21222;-86
2020/12/04 04:44:36;;;;;;;58.30;17.57;;;;;;;-0.92;85.81;102281.75;1659266;84;21654;-86
2020/12/04 04:47:06;;;;;;;65.60;17.90;;;;;;;-0.86;85.90;102289.12;1716021;80;21236;-86
2020/12/04 04:49:42;;;;;;;61.53;17.30;;;;;;;-0.93;85.67;102291.51;1773292;80;21172;-86
2020/12/04 04:52:08;;;;;;;61.68;16.40;;;;;;;-0.97;85.66;102282.20;1778680;80;21597;-86
2020/12/04 04:54:36;;;;;;;65.00;16.17;;;;;;;-0.86;84.92;102286.97;1774447;80;20926;-86
2020/12/04 04:57:03;;;;;;;59.00;16.65;;;;;;;-0.83;85.07;102291.97;1772219;80;21644;-85
2020/12/04 04:59:29;;;;;;;62.35;16.02;;;;;;;-0.83;84.96;102281.39;1756243;80;21922;-86
2020/12/04 05:01:55;;;;;;;63.42;16.87;;;;;;;-0.91;85.06;102292.70;1742351;80;21184;-86
2020/12/04 05:04:21;;;;;;;63.75;14.83;;;;;;;-0.78;84.57;102294.54;1758258;80;20958;-86
2020/12/04 05:06:47;;;;;;;52.33;14.47;;;;;;;-1.11;85.06;102288.42;1752801;80;21013;-86
2020/12/04 05:09:25;;;;;;;50.75;15.03;;;;;;;-0.82;84.28;102286.55;1760844;80;21046;-86
2020/12/04 05:12:00;;;;;;;60.52;15.15;;;;;;;-0.87;83.76;102300.69;1779934;80;22041;-86
2020/12/04 05:14:27;;;;;;;60.75;15.18;;;;;;;-1.00;83.85;102301.46;1762186;80;21105;-86
2020/12/04 05:16:56;;;;;;;56.45;15.48;;;;;;;-0.84;83.90;102299.58;1762962;80;21176;-85
2020/12/04 05:19:32;;;;;;;64.10;16.82;;;;;;;-0.80;83.98;102297.81;1761343;80;21169;-86
2020/12/04 05:22:15;;;;;;;71.20;20.02;;;;;;;-0.82;84.09;102303.76;1760251;80;21053;-86
2020/12/04 05:24:42;;;;;;;61.40;16.40;;;;;;;-0.97;84.64;102300.72;1751104;80;21330;-86
2020/12/04 05:27:27;;;;;;;55.75;15.85;;;;;;;-1.17;85.13;102301.71;1759403;80;21221;-86
2020/12/04 05:29:56;;;;;;;63.00;18.32;;;;;;;-0.81;84.33;102312.52;1769344;80;21112;-86
2020/12/04 05:32:22;;;;;;;59.08;16.93;;;;;;;-1.15;85.10;102311.19;1765796;80;21664;-86
2020/12/04 05:34:50;;;;;;;58.87;18.27;;;;;;;-0.96;84.48;102315.61;1755069;80;21058;-86
2020/12/04 05:37:20;;;;;;;67.25;18.02;;;;;;;-0.92;84.70;102313.50;1758503;80;22342;-86
2020/12/04 05:39:49;;;;;;;59.33;15.80;;;;;;;-0.95;84.51;102313.30;1757378;80;21582;-85
2020/12/04 05:42:33;;;;;;;53.95;16.37;;;;;;;-0.91;83.66;102315.20;1663847;84;21195;-86
2020/12/04 05:45:00;;;;;;;58.02;14.53;;;;;;;-0.92;83.90;102309.05;1687354;83;21165;-87
2020/12/04 05:47:41;;;;;;;57.48;16.62;;;;;;;-1.05;83.54;102313.81;1672740;84;21624;-86
2020/12/04 05:50:12;;;;;;;55.83;18.05;;;;;;;-0.88;83.66;102316.70;1687677;83;21400;-86
2020/12/04 05:52:39;;;;;;;61.18;18.20;;;;;;;-0.93;83.14;102317.97;1693489;83;22318;-86
2020/12/04 05:55:08;;;;;;;60.52;17.10;;;;;;;-1.02;82.93;102320.64;1690914;84;21312;-86
2020/12/04 05:57:55;;;;;;;66.30;18.05;;;;;;;-0.88;82.80;102331.25;1684426;83;21897;-86
2020/12/04 06:00:22;;;;;;;50.83;17.10;;;;;;;-0.93;82.92;102329.88;1620635;86;21624;-86
2020/12/04 06:03:01;;;;;;;64.17;19.12;;;;;;;-0.97;82.31;102339.09;1649049;85;21228;-85
2020/12/04 06:09:08;;;;;;;72.50;20.65;;;;;;;-0.95;83.05;102342.41;1558829;90;21267;-86
2020/12/04 06:11:46;;;;;;;56.10;17.67;;;;;;;-0.81;82.08;102354.87;1549488;89;21227;-86
2020/12/04 06:14:19;;;;;;;58.02;18.67;;;;;;;-1.08;82.37;102355.09;1570059;90;21152;-86
2020/12/04 06:17:06;;;;;;;58.28;16.12;;;;;;;-0.89;82.21;102356.88;1476770;96;21592;-86
2020/12/04 06:19:37;;;;;;;47.73;13.85;;;;;;;-0.90;80.80;102350.42;1475423;96;21238;-86
2020/12/04 06:22:17;;;;;;;62.73;15.08;;;;;;;-0.58;80.47;102356.22;1454858;98;21212;-87
2020/12/04 06:24:57;;;;;;;50.73;13.98;;;;;;;-0.58;79.36;102351.42;1471912;96;21290;-86
2020/12/04 06:27:43;;;;;;;51.73;13.85;;;;;;;-0.66;80.06;102361.39;1475207;96;21537;-86
2020/12/04 06:30:12;;;;;;;51.23;13.98;;;;;;;-0.72;79.39;102364.61;1476944;96;21659;-87
2020/12/04 06:32:49;;;;;;;53.42;13.48;;;;;;;-0.59;79.79;102365.62;1484809;92;21385;-87
2020/12/04 06:35:36;;;;;;;61.63;15.18;;;;;;;-0.72;80.21;102369.41;1430654;100;21235;-86
2020/12/04 06:38:02;;;;;;;53.25;13.35;;;;;;;-0.60;79.35;102367.44;1431584;100;21332;-89
2020/12/04 06:40:31;;;;;;;56.02;15.70;;;;;;;-0.63;78.09;102366.40;1429068;99;21041;-86
2020/12/04 06:42:59;;;;;;;58.35;14.73;;;;;;;-0.49;78.52;102358.01;1422096;99;21316;-87
2020/12/04 06:45:48;;;;;;;54.60;12.78;;;;;;;-0.49;78.41;102365.13;1425677;99;21270;-88
2020/12/04 06:48:18;;;;;;;47.20;12.78;;;;;;;-0.61;77.52;102357.00;1432154;99;21300;-88
2020/12/04 06:50:46;;;;;;;50.08;13.22;;;;;;;-0.49;76.81;102353.20;1422642;99;21803;-87
2020/12/04 06:53:15;;;;;;;42.13;11.85;;;;;;;-0.24;77.28;102365.83;1431670;99;21287;-87
2020/12/04 06:55:42;;;;;;;48.20;14.23;;;;;;;-0.38;76.29;102356.16;1408443;101;21298;-87
2020/12/04 06:58:08;;;;;;;52.10;12.78;;;;;;;-0.61;76.80;102369.75;1404292;100;21319;-87
2020/12/04 07:00:36;;;;;;;51.08;13.48;;;;;;;-0.56;76.49;102362.22;1443180;97;21312;-88
2020/12/04 07:03:04;;;;;;;82.90;20.08;;;;;;;-0.38;76.69;102372.05;1499294;93;21259;-87
2020/12/04 07:05:34;;;;;;;63.70;15.35;;;;;;;-0.59;77.44;102363.83;1518036;94;21194;-87
2020/12/04 07:08:08;;;;;;;49.15;12.93;;;;;;;-0.56;76.89;102364.01;1534206;91;21345;-88
2020/12/04 07:10:36;;;;;;;40.45;12.60;;;;;;;-0.33;76.40;102360.05;1538390;93;21702;-88
2020/12/04 07:13:05;;;;;;;41.30;11.08;;;;;;;-0.48;76.42;102372.91;1564252;86;21242;-87
2020/12/04 07:15:32;;;;;;;36.53;11.12;;;;;;;-0.25;75.41;102374.73;1633838;85;21601;-88
2020/12/04 07:18:00;;;;;;;38.30;11.45;;;;;;;0.16;73.96;102375.27;1660506;85;22123;-87
2020/12/04 07:20:37;;;;;;;35.08;11.05;;;;;;;-0.26;74.81;102368.27;1632803;86;21993;-87
2020/12/04 07:23:08;;;;;;;36.33;10.63;;;;;;;-0.09;75.05;102366.19;1649573;86;21242;-88
2020/12/04 07:25:36;;;;;;;44.33;12.68;;;;;;;-0.26;74.62;102368.27;1655652;86;21622;-89
2020/12/04 07:28:06;;;;;;;37.45;11.53;;;;;;;-0.35;75.21;102375.27;1655472;86;21165;-89
2020/12/04 07:30:32;;;;;;;40.63;11.45;;;;;;;0.09;74.49;102381.29;1651619;84;21282;-87
2020/12/04 07:32:59;;;;;;;38.95;11.25;;;;;;;0.15;74.39;102384.70;1744638;80;21188;-88
2020/12/04 07:35:25;;;;;;;37.28;11.33;;;;;;;-0.24;74.69;102384.83;1752074;80;21636;-88
2020/12/04 07:37:51;;;;;;;37.55;12.07;;;;;;;0.38;72.91;102380.68;1765982;80;21208;-89
2020/12/04 07:40:18;;;;;;;45.75;13.58;;;;;;;0.26;72.97;102381.01;1777601;80;20950;-87
2020/12/04 07:42:44;;;;;;;39.50;11.15;;;;;;;0.42;72.58;102382.04;1751639;80;21196;-87
2020/12/04 07:45:16;;;;;;;34.08;10.50;;;;;;;-0.12;73.50;102383.70;1760912;80;21273;-87
2020/12/04 07:47:43;;;;;;;36.25;9.83;;;;;;;0.41;72.98;102388.80;1668815;84;21245;-87
2020/12/04 07:50:14;;;;;;;43.58;11.20;;;;;;;-0.04;73.29;102387.77;1678542;84;21377;-89
2020/12/04 07:52:51;;;;;;;38.13;11.53;;;;;;;0.17;72.86;102381.40;1665603;84;21249;-88
2020/12/04 07:55:21;;;;;;;42.20;12.73;;;;;;;0.61;71.91;102382.40;1683404;84;21239;-88
2020/12/04 07:58:08;;;;;;;39.55;12.75;;;;;;;0.68;71.93;102389.29;1683800;84;21613;-87
2020/12/04 08:00:35;;;;;;;33.28;11.68;;;;;;;0.71;71.40;102391.64;1638664;85;21259;-88
2020/12/04 08:03:12;;;;;;;33.02;10.85;;;;;;;0.96;71.35;102391.87;1611936;87;21273;-88
2020/12/04 08:05:39;;;;;;;40.48;10.78;;;;;;;0.86;71.47;102384.82;1580999;89;21228;-90
2020/12/04 08:08:06;;;;;;;37.10;10.38;;;;;;;0.44;71.21;102388.51;1574628;90;21216;-87
2020/12/04 08:10:33;;;;;;;39.98;12.00;;;;;;;0.30;72.90;102378.42;1583098;89;21656;-86
2020/12/04 08:12:59;;;;;;;42.38;12.88;;;;;;;0.56;73.01;102383.83;1585209;88;21135;-87
2020/12/04 08:15:25;;;;;;;48.20;12.07;;;;;;;1.04;71.17;102374.70;1564329;89;21167;-87
2020/12/04 08:18:06;;;;;;;42.20;10.48;;;;;;;0.74;71.50;102367.46;1576269;90;21224;-87
2020/12/04 08:20:33;;;;;;;46.02;12.90;;;;;;;0.63;70.78;102361.87;1562381;90;21306;-87
2020/12/04 08:22:59;;;;;;;36.20;12.28;;;;;;;1.36;69.72;102368.81;1564046;90;21364;-87
2020/12/04 08:25:28;;;;;;;44.40;12.55;;;;;;;0.92;70.93;102369.28;1545452;91;21200;-87
2020/12/04 08:27:55;;;;;;;41.18;12.93;;;;;;;1.21;70.13;102362.40;1569628;90;21184;-87
2020/12/04 08:30:24;;;;;;;42.73;12.70;;;;;;;1.64;69.11;102366.00;1565391;89;21240;-87
2020/12/04 08:32:58;;;;;;;47.10;12.85;;;;;;;0.81;70.63;102347.78;1542937;90;21213;-86
2020/12/04 08:35:43;;;;;;;47.58;13.35;;;;;;;1.09;70.24;102351.19;1559584;91;21293;-87
2020/12/04 08:38:14;;;;;;;37.03;10.72;;;;;;;1.72;70.63;102354.09;1584087;89;21192;-86
2020/12/04 08:40:45;;;;;;;41.15;12.70;;;;;;;1.03;69.67;102349.98;1600869;89;21742;-87
2020/12/04 08:43:18;;;;;;;44.80;11.97;;;;;;;1.42;70.00;102353.58;1599486;88;21209;-88
2020/12/04 08:45:50;;;;;;;45.28;14.18;;;;;;;1.74;68.96;102362.25;1589121;88;21688;-87
2020/12/04 08:48:21;;;;;;;46.40;12.85;;;;;;;1.55;68.74;102365.11;1601306;88;21592;-86
2020/12/04 08:50:50;;;;;;;39.20;12.65;;;;;;;1.81;68.42;102367.77;1531990;92;21359;-87
2020/12/04 08:53:20;;;;;;;42.38;12.53;;;;;;;1.72;69.07;102362.89;1512908;92;21361;-88
2020/12/04 08:55:50;;;;;;;34.18;11.63;;;;;;;2.61;67.09;102358.08;1516386;92;21620;-87
2020/12/04 08:58:18;;;;;;;45.12;12.50;;;;;;;2.77;66.42;102347.97;1467868;96;21654;-87
2020/12/04 09:00:46;;;;;;;45.85;12.82;;;;;;;2.88;65.72;102346.30;1451949;96;21226;-87
2020/12/04 09:03:13;;;;;;;43.75;11.22;;;;;;;1.91;67.69;102354.34;1466255;96;21603;-87
2020/12/04 09:05:39;;;;;;;38.10;9.45;;;;;;;2.31;67.16;102343.55;1451517;97;21199;-87
2020/12/04 09:08:06;;;;;;;35.78;11.18;;;;;;;1.27;69.41;102353.81;1483428;93;21016;-87
2020/12/04 09:10:34;;;;;;;36.35;12.13;;;;;;;1.52;69.30;102355.63;1518600;94;21255;-88
2020/12/04 09:13:01;;;;;;;38.28;11.05;;;;;;;1.01;71.24;102345.30;1520272;93;21274;-88
2020/12/04 09:19:07;;;;;;;40.43;11.88;;;;;;;1.78;68.79;102341.00;1513509;94;21361;-87
2020/12/04 09:21:33;;;;;;;46.83;12.70;;;;;;;1.82;69.31;102349.48;1507380;94;21061;-87
2020/12/04 09:23:59;;;;;;;39.25;12.28;;;;;;;1.67;69.74;102352.39;1508174;94;21207;-86
2020/12/04 09:26:25;;;;;;;34.60;11.93;;;;;;;1.68;70.18;102357.56;1507466;94;21320;-88
2020/12/04 09:28:51;;;;;;;44.33;11.70;;;;;;;1.52;71.04;102336.20;1515670;92;21069;-87
2020/12/04 09:31:17;;;;;;;44.20;14.10;;;;;;;1.40;71.17;102346.25;1529531;92;21728;-87
2020/12/04 09:33:43;;;;;;;38.25;12.10;;;;;;;1.23;72.41;102337.33;1520204;92;21004;-86
2020/12/04 09:36:09;;;;;;;38.48;12.73;;;;;;;1.76;71.33;102335.00;1520086;92;21217;-87
2020/12/04 09:42:16;;;;;;;39.35;12.53;;;;;;;1.32;72.06;102332.45;1510482;94;21361;-87
2020/12/04 09:44:44;;;;;;;40.73;12.00;;;;;;;1.70;71.65;102330.82;1515391;93;21171;-87
2020/12/04 09:47:11;;;;;;;40.88;12.98;;;;;;;1.95;71.00;102333.11;1489251;93;21208;-87
2020/12/04 09:49:38;;;;;;;36.50;12.75;;;;;;;2.04;70.93;102338.30;1514332;92;21461;-87
2020/12/04 09:52:05;;;;;;;38.78;11.15;;;;;;;1.89;71.18;102329.27;1537147;92;21545;-87
2020/12/04 09:54:37;;;;;;;42.20;12.70;;;;;;;1.70;71.01;102339.63;1527450;90;21171;-86
2020/12/04 15:31:09;;;;;;;53.33;16.35;;;;;;;0.28;86.66;102405.07;1761889;80;21443;-87
2020/12/04 15:33:35;;;;;;;53.87;16.95;;;;;;;0.16;87.74;102398.30;1755420;80;21018;-86
2020/12/04 15:36:01;;;;;;;48.10;16.85;;;;;;;0.17;87.41;102399.95;1761561;80;20989;-87
2020/12/04 15:38:27;;;;;;;44.75;16.90;;;;;;;0.29;87.39;102400.10;1760475;80;21185;-87
2020/12/04 15:40:53;;;;;;;51.90;18.00;;;;;;;0.34;87.56;102407.13;1755086;80;21023;-87
2020/12/04 15:43:18;;;;;;;54.48;17.37;;;;;;;0.28;87.96;102406.40;1748413;80;20991;-86
2020/12/04 15:45:44;;;;;;;56.77;18.42;;;;;;;0.32;87.79;102402.45;1771811;80;20939;-87
2020/12/04 15:48:10;;;;;;;57.93;19.55;;;;;;;0.28;88.26;102402.91;1765476;80;21035;-86
2020/12/04 15:50:36;;;;;;;59.05;18.65;;;;;;;0.38;88.04;102411.17;1749425;80;21227;-87
2020/12/04 15:53:03;;;;;;;56.63;18.27;;;;;;;0.39;88.10;102418.64;1759741;80;20951;-86
2020/12/04 15:55:29;;;;;;;61.48;18.70;;;;;;;0.38;88.09;102425.77;1770438;80;21120;-86
2020/12/04 15:57:55;;;;;;;64.22;18.98;;;;;;;0.52;88.04;102418.28;1774103;80;21218;-87
2020/12/04 16:00:21;;;;;;;49.55;16.40;;;;;;;0.44;88.09;102419.87;1767132;80;21007;-87
2020/12/04 16:02:47;;;;;;;54.10;17.60;;;;;;;0.61;87.45;102414.73;1764304;80;21186;-87
2020/12/04 16:05:13;;;;;;;59.65;18.40;;;;;;;0.58;87.75;102420.34;1750787;80;20916;-87
2020/12/04 16:07:39;;;;;;;58.60;18.77;;;;;;;0.61;87.45;102420.86;1754871;80;21600;-87
2020/12/04 16:10:05;;;;;;;56.33;17.90;;;;;;;0.60;87.46;102424.52;1743199;81;21069;-87
2020/12/04 16:12:31;;;;;;;52.15;17.90;;;;;;;0.60;87.69;102429.81;1747252;81;21057;-87
2020/12/04 16:14:57;;;;;;;63.48;20.20;;;;;;;0.61;88.13;102431.47;1739672;81;21280;-87
2020/12/04 16:17:23;;;;;;;62.53;19.67;;;;;;;0.56;88.81;102430.25;1721507;82;20974;-88
2020/12/04 16:19:49;;;;;;;65.60;19.77;;;;;;;0.76;87.81;102434.45;1721645;82;21586;-87
2020/12/04 16:22:15;;;;;;;62.00;20.37;;;;;;;0.72;87.77;102427.80;1720713;82;20939;-87
2020/12/04 16:24:43;;;;;;;72.10;22.13;;;;;;;0.69;88.16;102436.05;1728083;82;21136;-87
2020/12/04 16:27:17;;;;;;;56.53;18.95;;;;;;;0.63;88.43;102438.80;1745288;81;21155;-86
2020/12/04 16:29:43;;;;;;;53.52;18.48;;;;;;;0.56;88.27;102434.23;1728033;81;21479;-87
2020/12/04 16:32:09;;;;;;;69.62;20.72;;;;;;;0.53;88.70;102435.85;1722681;81;20942;-85
2020/12/04 16:34:35;;;;;;;68.85;23.18;;;;;;;0.40;88.59;102445.48;1758294;80;21221;-87
2020/12/04 16:37:01;;;;;;;54.53;19.32;;;;;;;0.64;88.71;102440.46;1777782;80;21608;-86
2020/12/04 16:39:27;;;;;;;52.85;20.05;;;;;;;0.67;88.28;102440.66;1758029;80;21187;-87
2020/12/04 16:41:54;;;;;;;58.90;20.62;;;;;;;0.60;88.51;102439.10;1749689;80;21155;-87
2020/12/04 16:44:20;;;;;;;59.33;19.67;;;;;;;0.69;88.09;102438.70;1739701;81;21144;-86
2020/12/04 16:46:46;;;;;;;53.80;17.67;;;;;;;0.67;88.30;102436.69;1763172;80;21125;-86
2020/12/04 16:49:13;;;;;;;52.95;17.50;;;;;;;0.71;88.40;102434.09;1758180;80;21211;-87
2020/12/04 16:51:44;;;;;;;50.23;17.57;;;;;;;0.74;87.95;102436.95;1772166;80;21272;-86
2020/12/04 16:54:11;;;;;;;55.50;18.50;;;;;;;0.87;87.78;102441.38;1754503;80;21177;-87
2020/12/04 16:56:39;;;;;;;55.75;19.98;;;;;;;0.90;87.30;102443.23;1769051;80;21532;-86
2020/12/04 16:59:05;;;;;;;53.17;17.05;;;;;;;0.72;87.87;102441.06;1770514;80;21631;-86
2020/12/04 17:01:31;;;;;;;52.17;16.17;;;;;;;0.81;87.67;102450.77;1742280;80;20926;-87